Terminal Aerodrome Forecast
Issued by NWS

Home | Current Version | Previous Version | Text Only | Print | Product List | Glossary Off
Versions: 1 2 3 4 5 6 7 8 9 10 11 12 13 14

000
FTUS43 KBIS 251139
TAFJMS
TAF
KJMS 251139Z 2512/2612 22010KT P6SM BKN200
     FM252200 20010KT P6SM VCTS BKN070CB
     FM260300 19006KT P6SM BKN100=

USA.gov is the U.S. government's official web portal to all federal, state and local government web resources and services.